sensor_id;sensor_type;location;lat;lon;timestamp;pressure;altitude;pressure_sealevel;temperature;humidity
29935;BME280;19905;53.370;-6.314;2023-02-18T00:01:48;101220.34;;;10.82;100.00
29935;BME280;19905;53.370;-6.314;2023-02-18T00:04:19;101219.81;;;10.77;100.00
29935;BME280;19905;53.370;-6.314;2023-02-18T00:06:49;101215.25;;;10.79;100.00
29935;BME280;19905;53.370;-6.314;2023-02-18T00:09:21;101216.41;;;10.75;100.00
29935;BME280;19905;53.370;-6.314;2023-02-18T00:11:52;101240.31;;;10.74;100.00
29935;BME280;19905;53.370;-6.314;2023-02-18T00:14:20;101222.53;;;10.76;100.00
29935;BME280;19905;53.370;-6.314;2023-02-18T00:16:49;101227.00;;;10.75;100.00
29935;BME280;19905;53.370;-6.314;2023-02-18T00:19:19;101239.78;;;10.68;100.00
29935;BME280;19905;53.370;-6.314;2023-02-18T00:21:48;101211.25;;;10.61;100.00
29935;BME280;19905;53.370;-6.314;2023-02-18T00:24:17;101219.69;;;10.66;100.00
29935;BME280;19905;53.370;-6.314;2023-02-18T00:26:49;101216.00;;;10.68;100.00
29935;BME280;19905;53.370;-6.314;2023-02-18T00:29:18;101230.06;;;10.69;100.00
29935;BME280;19905;53.370;-6.314;2023-02-18T00:31:47;101206.81;;;10.74;100.00
29935;BME280;19905;53.370;-6.314;2023-02-18T00:34:15;101208.59;;;10.74;100.00
29935;BME280;19905;53.370;-6.314;2023-02-18T00:36:44;101217.06;;;10.66;100.00
29935;BME280;19905;53.370;-6.314;2023-02-18T00:39:13;101210.28;;;10.62;100.00
29935;BME280;19905;53.370;-6.314;2023-02-18T00:41:42;101209.56;;;10.60;100.00
29935;BME280;19905;53.370;-6.314;2023-02-18T00:44:12;101207.22;;;10.55;100.00
29935;BME280;19905;53.370;-6.314;2023-02-18T00:46:41;101217.28;;;10.50;100.00
29935;BME280;19905;53.370;-6.314;2023-02-18T00:49:09;101229.81;;;10.47;100.00
29935;BME280;19905;53.370;-6.314;2023-02-18T00:51:38;101230.97;;;10.42;100.00
29935;BME280;19905;53.370;-6.314;2023-02-18T00:54:07;101221.19;;;10.45;100.00
29935;BME280;19905;53.370;-6.314;2023-02-18T00:56:36;101217.78;;;10.42;100.00
29935;BME280;19905;53.370;-6.314;2023-02-18T00:59:05;101225.50;;;10.46;100.00
29935;BME280;19905;53.370;-6.314;2023-02-18T01:01:35;101216.09;;;10.41;100.00
29935;BME280;19905;53.370;-6.314;2023-02-18T01:04:04;101213.97;;;10.47;100.00
29935;BME280;19905;53.370;-6.314;2023-02-18T01:06:32;101232.91;;;10.40;100.00
29935;BME280;19905;53.370;-6.314;2023-02-18T01:09:01;101221.69;;;10.37;100.00
29935;BME280;19905;53.370;-6.314;2023-02-18T01:11:30;101217.66;;;10.31;100.00
29935;BME280;19905;53.370;-6.314;2023-02-18T01:13:58;101223.97;;;10.29;100.00
29935;BME280;19905;53.370;-6.314;2023-02-18T01:16:27;101215.22;;;10.28;100.00
29935;BME280;19905;53.370;-6.314;2023-02-18T01:18:58;101215.22;;;10.28;100.00
29935;BME280;19905;53.370;-6.314;2023-02-18T01:21:26;101224.09;;;10.27;100.00
29935;BME280;19905;53.370;-6.314;2023-02-18T01:23:55;101223.34;;;10.25;100.00
29935;BME280;19905;53.370;-6.314;2023-02-18T01:26:24;101220.63;;;10.27;100.00
29935;BME280;19905;53.370;-6.314;2023-02-18T01:28:52;101240.03;;;10.26;100.00
29935;BME280;19905;53.370;-6.314;2023-02-18T01:31:21;101236.72;;;10.22;100.00
29935;BME280;19905;53.370;-6.314;2023-02-18T01:33:49;101241.75;;;10.27;100.00
29935;BME280;19905;53.370;-6.314;2023-02-18T01:36:19;101232.88;;;10.28;100.00
29935;BME280;19905;53.370;-6.314;2023-02-18T01:38:48;101227.66;;;10.26;100.00
29935;BME280;19905;53.370;-6.314;2023-02-18T01:41:17;101212.00;;;10.23;100.00
29935;BME280;19905;53.370;-6.314;2023-02-18T01:43:45;101222.56;;;10.23;100.00
29935;BME280;19905;53.370;-6.314;2023-02-18T01:46:16;101232.03;;;10.27;100.00
29935;BME280;19905;53.370;-6.314;2023-02-18T01:48:49;101241.63;;;10.28;100.00
29935;BME280;19905;53.370;-6.314;2023-02-18T01:51:26;101242.06;;;10.35;100.00
29935;BME280;19905;53.370;-6.314;2023-02-18T01:53:58;101235.63;;;10.39;100.00
29935;BME280;19905;53.370;-6.314;2023-02-18T01:56:30;101256.03;;;10.50;100.00
29935;BME280;19905;53.370;-6.314;2023-02-18T01:59:02;101211.03;;;10.51;100.00
29935;BME280;19905;53.370;-6.314;2023-02-18T02:01:32;101241.78;;;10.52;100.00
29935;BME280;19905;53.370;-6.314;2023-02-18T02:04:01;101233.13;;;10.50;100.00
29935;BME280;19905;53.370;-6.314;2023-02-18T02:06:31;101225.19;;;10.50;100.00
29935;BME280;19905;53.370;-6.314;2023-02-18T02:09:03;101246.41;;;10.49;100.00
29935;BME280;19905;53.370;-6.314;2023-02-18T02:11:52;101237.56;;;10.50;100.00
29935;BME280;19905;53.370;-6.314;2023-02-18T02:14:41;101241.03;;;10.50;100.00
29935;BME280;19905;53.370;-6.314;2023-02-18T02:17:21;101229.41;;;10.53;100.00
29935;BME280;19905;53.370;-6.314;2023-02-18T02:20:24;101245.38;;;10.51;100.00
29935;BME280;19905;53.370;-6.314;2023-02-18T02:23:33;101261.09;;;10.53;100.00
29935;BME280;19905;53.370;-6.314;2023-02-18T02:29:26;101259.00;;;10.58;100.00
29935;BME280;19905;53.370;-6.314;2023-02-18T02:35:05;101268.41;;;10.62;100.00
29935;BME280;19905;53.370;-6.314;2023-02-18T02:37:40;101261.25;;;10.64;100.00
29935;BME280;19905;53.370;-6.314;2023-02-18T02:40:20;101260.16;;;10.66;100.00
29935;BME280;19905;53.370;-6.314;2023-02-18T02:43:02;101252.25;;;10.66;100.00
29935;BME280;19905;53.370;-6.314;2023-02-18T02:45:41;101247.91;;;10.65;100.00
29935;BME280;19905;53.370;-6.314;2023-02-18T02:48:17;101269.06;;;10.65;100.00
29935;BME280;19905;53.370;-6.314;2023-02-18T02:50:53;101251.19;;;10.69;100.00
29935;BME280;19905;53.370;-6.314;2023-02-18T02:53:27;101268.53;;;10.73;100.00
29935;BME280;19905;53.370;-6.314;2023-02-18T02:55:57;101260.63;;;10.73;100.00
29935;BME280;19905;53.370;-6.314;2023-02-18T02:58:26;101259.53;;;10.76;100.00
29935;BME280;19905;53.370;-6.314;2023-02-18T03:01:05;101250.88;;;10.74;100.00
29935;BME280;19905;53.370;-6.314;2023-02-18T03:06:55;101263.78;;;10.78;100.00
29935;BME280;19905;53.370;-6.314;2023-02-18T03:09:34;101281.31;;;10.79;100.00
29935;BME280;19905;53.370;-6.314;2023-02-18T03:12:13;101268.22;;;10.78;100.00
29935;BME280;19905;53.370;-6.314;2023-02-18T03:14:47;101293.81;;;10.77;100.00
29935;BME280;19905;53.370;-6.314;2023-02-18T03:17:24;101292.84;;;10.78;100.00
29935;BME280;19905;53.370;-6.314;2023-02-18T03:19:56;101302.78;;;10.75;100.00
29935;BME280;19905;53.370;-6.314;2023-02-18T03:22:31;101293.56;;;10.80;100.00
29935;BME280;19905;53.370;-6.314;2023-02-18T03:25:02;101289.69;;;10.86;100.00
29935;BME280;19905;53.370;-6.314;2023-02-18T03:27:36;101293.06;;;10.75;100.00
29935;BME280;19905;53.370;-6.314;2023-02-18T03:30:10;101282.72;;;10.72;100.00
29935;BME280;19905;53.370;-6.314;2023-02-18T03:32:41;101285.75;;;10.79;100.00
29935;BME280;19905;53.370;-6.314;2023-02-18T03:35:12;101273.28;;;10.81;100.00
29935;BME280;19905;53.370;-6.314;2023-02-18T03:37:47;101269.25;;;10.75;100.00
29935;BME280;19905;53.370;-6.314;2023-02-18T03:40:17;101279.31;;;10.70;100.00
29935;BME280;19905;53.370;-6.314;2023-02-18T03:42:47;101265.34;;;10.55;100.00
29935;BME280;19905;53.370;-6.314;2023-02-18T03:45:15;101247.47;;;10.46;100.00
29935;BME280;19905;53.370;-6.314;2023-02-18T03:47:45;101245.88;;;10.43;100.00
29935;BME280;19905;53.370;-6.314;2023-02-18T03:50:14;101235.22;;;10.45;100.00
29935;BME280;19905;53.370;-6.314;2023-02-18T03:52:44;101241.53;;;10.42;100.00
29935;BME280;19905;53.370;-6.314;2023-02-18T03:55:13;101237.94;;;10.43;100.00
29935;BME280;19905;53.370;-6.314;2023-02-18T03:57:42;101221.78;;;10.48;100.00
29935;BME280;19905;53.370;-6.314;2023-02-18T04:00:11;101230.78;;;10.46;100.00
29935;BME280;19905;53.370;-6.314;2023-02-18T04:02:40;101217.34;;;10.49;100.00
29935;BME280;19905;53.370;-6.314;2023-02-18T04:05:09;101216.31;;;10.51;100.00
29935;BME280;19905;53.370;-6.314;2023-02-18T04:07:38;101201.50;;;10.49;100.00
29935;BME280;19905;53.370;-6.314;2023-02-18T04:10:09;101222.09;;;10.43;100.00
29935;BME280;19905;53.370;-6.314;2023-02-18T04:12:38;101268.22;;;10.25;100.00
29935;BME280;19905;53.370;-6.314;2023-02-18T04:15:07;101256.38;;;9.91;100.00
29935;BME280;19905;53.370;-6.314;2023-02-18T04:17:36;101244.91;;;9.78;100.00
29935;BME280;19905;53.370;-6.314;2023-02-18T04:20:06;101285.91;;;9.69;100.00
29935;BME280;19905;53.370;-6.314;2023-02-18T04:22:35;101279.78;;;9.68;100.00
29935;BME280;19905;53.370;-6.314;2023-02-18T04:25:04;101272.72;;;9.69;100.00
29935;BME280;19905;53.370;-6.314;2023-02-18T04:27:39;101261.31;;;9.68;100.00
29935;BME280;19905;53.370;-6.314;2023-02-18T04:30:09;101270.09;;;9.69;100.00
29935;BME280;19905;53.370;-6.314;2023-02-18T04:32:37;101254.25;;;9.69;100.00
29935;BME280;19905;53.370;-6.314;2023-02-18T04:35:06;101265.66;;;9.70;100.00
29935;BME280;19905;53.370;-6.314;2023-02-18T04:37:35;101269.78;;;9.74;100.00
29935;BME280;19905;53.370;-6.314;2023-02-18T04:40:06;101258.41;;;9.73;100.00
29935;BME280;19905;53.370;-6.314;2023-02-18T04:42:35;101264.41;;;9.75;100.00
29935;BME280;19905;53.370;-6.314;2023-02-18T04:45:05;101263.38;;;9.78;100.00
29935;BME280;19905;53.370;-6.314;2023-02-18T04:47:36;101264.97;;;9.80;100.00
29935;BME280;19905;53.370;-6.314;2023-02-18T04:50:06;101276.94;;;9.86;100.00
29935;BME280;19905;53.370;-6.314;2023-02-18T04:52:35;101254.56;;;9.91;100.00
29935;BME280;19905;53.370;-6.314;2023-02-18T04:55:05;101250.97;;;9.92;100.00
29935;BME280;19905;53.370;-6.314;2023-02-18T04:57:34;101232.50;;;9.92;100.00
29935;BME280;19905;53.370;-6.314;2023-02-18T05:00:05;101219.63;;;9.88;100.00
29935;BME280;19905;53.370;-6.314;2023-02-18T05:02:35;101227.34;;;9.91;100.00
29935;BME280;19905;53.370;-6.314;2023-02-18T05:05:03;101234.41;;;9.90;100.00
29935;BME280;19905;53.370;-6.314;2023-02-18T05:07:33;101224.41;;;9.96;100.00
29935;BME280;19905;53.370;-6.314;2023-02-18T05:10:02;101241.06;;;9.96;100.00
29935;BME280;19905;53.370;-6.314;2023-02-18T05:12:30;101219.78;;;9.99;100.00
29935;BME280;19905;53.370;-6.314;2023-02-18T05:14:59;101217.75;;;10.03;100.00
29935;BME280;19905;53.370;-6.314;2023-02-18T05:17:29;101215.13;;;10.03;100.00
29935;BME280;19905;53.370;-6.314;2023-02-18T05:19:58;101203.81;;;10.01;100.00
29935;BME280;19905;53.370;-6.314;2023-02-18T05:22:26;101205.63;;;10.00;100.00
29935;BME280;19905;53.370;-6.314;2023-02-18T05:24:55;101201.31;;;9.99;100.00
29935;BME280;19905;53.370;-6.314;2023-02-18T05:27:23;101213.19;;;9.92;100.00
29935;BME280;19905;53.370;-6.314;2023-02-18T05:29:52;101217.28;;;9.83;100.00
29935;BME280;19905;53.370;-6.314;2023-02-18T05:32:20;101217.56;;;9.79;100.00
29935;BME280;19905;53.370;-6.314;2023-02-18T05:34:51;101235.31;;;9.77;100.00
29935;BME280;19905;53.370;-6.314;2023-02-18T05:37:19;101229.09;;;9.78;100.00
29935;BME280;19905;53.370;-6.314;2023-02-18T05:39:48;101214.81;;;9.80;100.00
29935;BME280;19905;53.370;-6.314;2023-02-18T05:42:16;101209.97;;;9.74;100.00
29935;BME280;19905;53.370;-6.314;2023-02-18T05:44:45;101217.22;;;9.71;100.00
29935;BME280;19905;53.370;-6.314;2023-02-18T05:47:14;101228.84;;;9.68;100.00
29935;BME280;19905;53.370;-6.314;2023-02-18T05:49:43;101225.06;;;9.72;100.00
29935;BME280;19905;53.370;-6.314;2023-02-18T05:52:13;101206.47;;;9.74;100.00
29935;BME280;19905;53.370;-6.314;2023-02-18T05:54:42;101216.84;;;9.77;100.00
29935;BME280;19905;53.370;-6.314;2023-02-18T05:57:13;101200.34;;;9.73;100.00
29935;BME280;19905;53.370;-6.314;2023-02-18T05:59:42;101184.22;;;9.78;100.00
29935;BME280;19905;53.370;-6.314;2023-02-18T06:02:11;101196.66;;;9.76;100.00
29935;BME280;19905;53.370;-6.314;2023-02-18T06:04:39;101198.25;;;9.78;100.00
29935;BME280;19905;53.370;-6.314;2023-02-18T06:07:08;101197.53;;;9.76;100.00
29935;BME280;19905;53.370;-6.314;2023-02-18T06:09:38;101200.34;;;9.73;100.00
29935;BME280;19905;53.370;-6.314;2023-02-18T06:12:06;101208.38;;;9.72;100.00
29935;BME280;19905;53.370;-6.314;2023-02-18T06:14:35;101226.44;;;9.78;100.00
29935;BME280;19905;53.370;-6.314;2023-02-18T06:17:03;101195.63;;;9.78;100.00
29935;BME280;19905;53.370;-6.314;2023-02-18T06:19:34;101206.72;;;9.83;100.00
29935;BME280;19905;53.370;-6.314;2023-02-18T06:22:04;101207.19;;;9.90;100.00
29935;BME280;19905;53.370;-6.314;2023-02-18T06:24:34;101205.03;;;9.82;100.00
29935;BME280;19905;53.370;-6.314;2023-02-18T06:27:04;101212.41;;;9.77;100.00
29935;BME280;19905;53.370;-6.314;2023-02-18T06:29:34;101206.72;;;9.83;100.00
29935;BME280;19905;53.370;-6.314;2023-02-18T06:32:02;101223.03;;;9.76;100.00
29935;BME280;19905;53.370;-6.314;2023-02-18T06:34:31;101230.13;;;9.75;100.00
29935;BME280;19905;53.370;-6.314;2023-02-18T06:37:00;101217.03;;;9.74;100.00
29935;BME280;19905;53.370;-6.314;2023-02-18T06:39:29;101210.91;;;9.73;100.00
29935;BME280;19905;53.370;-6.314;2023-02-18T06:41:58;101232.97;;;9.72;100.00
29935;BME280;19905;53.370;-6.314;2023-02-18T06:44:28;101235.59;;;9.72;100.00
29935;BME280;19905;53.370;-6.314;2023-02-18T06:46:56;101219.66;;;9.74;100.00
29935;BME280;19905;53.370;-6.314;2023-02-18T06:49:26;101239.56;;;9.65;100.00
29935;BME280;19905;53.370;-6.314;2023-02-18T06:51:54;101239.28;;;9.70;100.00
29935;BME280;19905;53.370;-6.314;2023-02-18T06:54:23;101249.09;;;9.67;100.00
29935;BME280;19905;53.370;-6.314;2023-02-18T06:56:52;101251.44;;;9.72;100.00
29935;BME280;19905;53.370;-6.314;2023-02-18T06:59:21;101255.09;;;9.70;100.00
29935;BME280;19905;53.370;-6.314;2023-02-18T07:01:51;101250.59;;;9.72;100.00
29935;BME280;19905;53.370;-6.314;2023-02-18T07:04:20;101249.53;;;9.74;100.00
29935;BME280;19905;53.370;-6.314;2023-02-18T07:06:49;101255.66;;;9.75;100.00
29935;BME280;19905;53.370;-6.314;2023-02-18T07:09:17;101254.41;;;9.80;100.00
29935;BME280;19905;53.370;-6.314;2023-02-18T07:11:46;101253.38;;;9.83;100.00
29935;BME280;19905;53.370;-6.314;2023-02-18T07:14:14;101279.28;;;9.90;100.00
29935;BME280;19905;53.370;-6.314;2023-02-18T07:16:43;101283.78;;;9.88;100.00
29935;BME280;19905;53.370;-6.314;2023-02-18T07:19:13;101283.72;;;9.90;100.00
29935;BME280;19905;53.370;-6.314;2023-02-18T07:21:42;101293.50;;;9.88;100.00
29935;BME280;19905;53.370;-6.314;2023-02-18T07:24:10;101294.34;;;9.88;100.00
29935;BME280;19905;53.370;-6.314;2023-02-18T07:26:39;101290.84;;;9.88;100.00
29935;BME280;19905;53.370;-6.314;2023-02-18T07:29:08;101291.03;;;9.85;100.00
29935;BME280;19905;53.370;-6.314;2023-02-18T07:31:36;101313.66;;;9.89;100.00
29935;BME280;19905;53.370;-6.314;2023-02-18T07:34:05;101328.56;;;9.90;100.00
29935;BME280;19905;53.370;-6.314;2023-02-18T07:36:35;101318.09;;;9.88;100.00
29935;BME280;19905;53.370;-6.314;2023-02-18T07:39:04;101328.75;;;9.87;100.00
29935;BME280;19905;53.370;-6.314;2023-02-18T07:41:33;101332.22;;;9.87;100.00
29935;BME280;19905;53.370;-6.314;2023-02-18T07:44:01;101339.41;;;9.85;100.00
29935;BME280;19905;53.370;-6.314;2023-02-18T07:46:30;101356.16;;;9.84;100.00
29935;BME280;19905;53.370;-6.314;2023-02-18T07:48:59;101353.53;;;9.84;100.00
29935;BME280;19905;53.370;-6.314;2023-02-18T07:51:27;101361.09;;;9.76;100.00
29935;BME280;19905;53.370;-6.314;2023-02-18T07:53:58;101361.97;;;9.62;100.00
29935;BME280;19905;53.370;-6.314;2023-02-18T07:56:26;101374.09;;;9.51;100.00
29935;BME280;19905;53.370;-6.314;2023-02-18T07:58:56;101379.66;;;9.46;100.00
29935;BME280;19905;53.370;-6.314;2023-02-18T08:01:25;101377.13;;;9.45;100.00
29935;BME280;19905;53.370;-6.314;2023-02-18T08:03:54;101372.47;;;9.48;100.00
29935;BME280;19905;53.370;-6.314;2023-02-18T08:06:25;101376.63;;;9.52;100.00
29935;BME280;19905;53.370;-6.314;2023-02-18T08:08:55;101367.81;;;9.53;100.00
29935;BME280;19905;53.370;-6.314;2023-02-18T08:11:25;101382.41;;;9.59;100.00
29935;BME280;19905;53.370;-6.314;2023-02-18T08:13:54;101388.50;;;9.59;100.00
29935;BME280;19905;53.370;-6.314;2023-02-18T08:16:23;101378.72;;;9.61;100.00
29935;BME280;19905;53.370;-6.314;2023-02-18T08:18:53;101378.53;;;9.64;100.00
29935;BME280;19905;53.370;-6.314;2023-02-18T08:21:23;101376.00;;;9.63;100.00
29935;BME280;19905;53.370;-6.314;2023-02-18T08:23:52;101382.00;;;9.65;100.00
29935;BME280;19905;53.370;-6.314;2023-02-18T08:26:21;101395.47;;;9.60;100.00
29935;BME280;19905;53.370;-6.314;2023-02-18T08:28:51;101392.19;;;9.57;100.00
29935;BME280;19905;53.370;-6.314;2023-02-18T08:31:23;101406.75;;;9.48;100.00
29935;BME280;19905;53.370;-6.314;2023-02-18T08:33:52;101421.44;;;9.38;100.00
29935;BME280;19905;53.370;-6.314;2023-02-18T08:36:22;101412.31;;;9.29;100.00
29935;BME280;19905;53.370;-6.314;2023-02-18T08:38:51;101424.16;;;9.22;100.00
29935;BME280;19905;53.370;-6.314;2023-02-18T08:41:20;101430.56;;;9.18;100.00
29935;BME280;19905;53.370;-6.314;2023-02-18T08:43:51;101426.22;;;9.17;100.00
29935;BME280;19905;53.370;-6.314;2023-02-18T08:46:19;101438.63;;;9.15;100.00
29935;BME280;19905;53.370;-6.314;2023-02-18T08:49:03;101442.22;;;9.14;100.00
29935;BME280;19905;53.370;-6.314;2023-02-18T08:51:33;101443.06;;;9.14;100.00
29935;BME280;19905;53.370;-6.314;2023-02-18T08:54:02;101442.97;;;9.16;100.00
29935;BME280;19905;53.370;-6.314;2023-02-18T08:56:31;101457.03;;;9.16;100.00
29935;BME280;19905;53.370;-6.314;2023-02-18T08:59:06;101449.00;;;9.18;100.00
29935;BME280;19905;53.370;-6.314;2023-02-18T09:01:34;101460.22;;;9.22;100.00
29935;BME280;19905;53.370;-6.314;2023-02-18T09:04:03;101479.53;;;9.22;100.00
29935;BME280;19905;53.370;-6.314;2023-02-18T09:06:36;101492.78;;;9.21;100.00
29935;BME280;19905;53.370;-6.314;2023-02-18T09:09:09;101499.94;;;9.19;100.00
29935;BME280;19905;53.370;-6.314;2023-02-18T09:11:37;101487.88;;;9.14;100.00
29935;BME280;19905;53.370;-6.314;2023-02-18T09:14:09;101495.69;;;9.16;100.00
29935;BME280;19905;53.370;-6.314;2023-02-18T09:16:38;101481.84;;;9.12;100.00
29935;BME280;19905;53.370;-6.314;2023-02-18T09:19:09;101481.19;;;9.09;100.00
29935;BME280;19905;53.370;-6.314;2023-02-18T09:21:38;101488.91;;;9.12;100.00
29935;BME280;19905;53.370;-6.314;2023-02-18T09:24:07;101496.56;;;9.16;100.00
29935;BME280;19905;53.370;-6.314;2023-02-18T09:26:39;101486.66;;;9.20;100.00
29935;BME280;19905;53.370;-6.314;2023-02-18T09:29:10;101494.28;;;9.25;100.00
29935;BME280;19905;53.370;-6.314;2023-02-18T09:31:43;101496.50;;;9.32;100.00
29935;BME280;19905;53.370;-6.314;2023-02-18T09:34:12;101497.25;;;9.34;100.00
29935;BME280;19905;53.370;-6.314;2023-02-18T09:36:41;101504.03;;;9.38;100.00
29935;BME280;19905;53.370;-6.314;2023-02-18T09:39:09;101497.66;;;9.42;100.00
29935;BME280;19905;53.370;-6.314;2023-02-18T09:41:42;101505.13;;;9.50;100.00
29935;BME280;19905;53.370;-6.314;2023-02-18T09:44:19;101502.22;;;9.55;100.00
29935;BME280;19905;53.370;-6.314;2023-02-18T09:46:52;101498.34;;;9.60;100.00
29935;BME280;19905;53.370;-6.314;2023-02-18T09:49:24;101497.97;;;9.66;100.00
29935;BME280;19905;53.370;-6.314;2023-02-18T09:51:55;101498.38;;;9.75;100.00
29935;BME280;19905;53.370;-6.314;2023-02-18T09:54:26;101504.47;;;9.75;100.00
29935;BME280;19905;53.370;-6.314;2023-02-18T09:56:54;101514.59;;;9.83;100.00
29935;BME280;19905;53.370;-6.314;2023-02-18T09:59:25;101507.81;;;9.93;100.00
29935;BME280;19905;53.370;-6.314;2023-02-18T10:01:55;101518.66;;;10.03;100.00
29935;BME280;19905;53.370;-6.314;2023-02-18T10:04:30;101506.88;;;10.08;100.00
29935;BME280;19905;53.370;-6.314;2023-02-18T10:07:03;101495.28;;;10.11;100.00
29935;BME280;19905;53.370;-6.314;2023-02-18T10:09:35;101501.13;;;10.16;100.00
29935;BME280;19905;53.370;-6.314;2023-02-18T10:12:13;101493.69;;;10.23;100.00
29935;BME280;19905;53.370;-6.314;2023-02-18T10:14:47;101508.00;;;10.18;100.00
29935;BME280;19905;53.370;-6.314;2023-02-18T10:17:17;101499.88;;;10.22;100.00
29935;BME280;19905;53.370;-6.314;2023-02-18T10:19:49;101492.66;;;10.25;100.00
29935;BME280;19905;53.370;-6.314;2023-02-18T10:22:21;101480.22;;;10.27;100.00
29935;BME280;19905;53.370;-6.314;2023-02-18T10:24:53;101471.16;;;10.31;100.00
29935;BME280;19905;53.370;-6.314;2023-02-18T10:27:24;101480.00;;;10.30;100.00
29935;BME280;19905;53.370;-6.314;2023-02-18T10:30:01;101502.84;;;10.31;100.00
29935;BME280;19905;53.370;-6.314;2023-02-18T10:32:37;101468.84;;;10.39;100.00
29935;BME280;19905;53.370;-6.314;2023-02-18T10:35:16;101466.06;;;10.28;100.00
29935;BME280;19905;53.370;-6.314;2023-02-18T10:37:55;101471.34;;;10.28;100.00
29935;BME280;19905;53.370;-6.314;2023-02-18T10:40:34;101477.56;;;10.27;100.00
29935;BME280;19905;53.370;-6.314;2023-02-18T10:43:15;101483.19;;;10.35;100.00
29935;BME280;19905;53.370;-6.314;2023-02-18T10:45:55;101472.00;;;10.32;100.00
29935;BME280;19905;53.370;-6.314;2023-02-18T10:48:38;101457.00;;;10.32;100.00
29935;BME280;19905;53.370;-6.314;2023-02-18T10:51:14;101457.19;;;10.29;100.00
29935;BME280;19905;53.370;-6.314;2023-02-18T10:53:46;101457.75;;;10.34;100.00
29935;BME280;19905;53.370;-6.314;2023-02-18T10:56:36;101450.97;;;10.30;100.00
29935;BME280;19905;53.370;-6.314;2023-02-18T10:59:11;101461.53;;;10.30;100.00
29935;BME280;19905;53.370;-6.314;2023-02-18T11:01:44;101451.72;;;10.32;100.00
29935;BME280;19905;53.370;-6.314;2023-02-18T11:04:16;101458.03;;;10.30;100.00
29935;BME280;19905;53.370;-6.314;2023-02-18T11:06:47;101452.97;;;10.27;100.00
29935;BME280;19905;53.370;-6.314;2023-02-18T11:09:32;101462.94;;;10.07;100.00
29935;BME280;19905;53.370;-6.314;2023-02-18T11:12:13;101477.53;;;9.99;100.00
29935;BME280;19905;53.370;-6.314;2023-02-18T11:14:45;101461.16;;;9.93;100.00
29935;BME280;19905;53.370;-6.314;2023-02-18T11:17:20;101481.63;;;9.90;100.00
29935;BME280;19905;53.370;-6.314;2023-02-18T11:19:56;101456.44;;;9.84;100.00
29935;BME280;19905;53.370;-6.314;2023-02-18T11:22:28;101456.66;;;9.81;100.00
29935;BME280;19905;53.370;-6.314;2023-02-18T11:25:19;101459.19;;;9.83;100.00
29935;BME280;19905;53.370;-6.314;2023-02-18T11:27:51;101457.22;;;9.86;100.00
29935;BME280;19905;53.370;-6.314;2023-02-18T11:30:23;101470.41;;;9.86;100.00
29935;BME280;19905;53.370;-6.314;2023-02-18T11:32:56;101479.06;;;9.88;100.00
29935;BME280;19905;53.370;-6.314;2023-02-18T11:35:30;101452.59;;;9.90;100.00
29935;BME280;19905;53.370;-6.314;2023-02-18T11:38:03;101448.63;;;9.97;100.00
29935;BME280;19905;53.370;-6.314;2023-02-18T11:40:41;101462.59;;;9.99;100.00
29935;BME280;19905;53.370;-6.314;2023-02-18T11:43:13;101443.81;;;10.04;100.00
29935;BME280;19905;53.370;-6.314;2023-02-18T11:45:42;101451.91;;;10.15;100.00
29935;BME280;19905;53.370;-6.314;2023-02-18T11:48:17;101458.97;;;10.14;100.00
29935;BME280;19905;53.370;-6.314;2023-02-18T11:50:50;101443.13;;;10.14;100.00
29935;BME280;19905;53.370;-6.314;2023-02-18T11:53:29;101466.34;;;10.09;100.00
29935;BME280;19905;53.370;-6.314;2023-02-18T11:56:03;101446.06;;;10.10;100.00
29935;BME280;19905;53.370;-6.314;2023-02-18T11:58:37;101447.94;;;10.08;100.00
29935;BME280;19905;53.370;-6.314;2023-02-18T12:01:14;101455.97;;;10.06;100.00
29935;BME280;19905;53.370;-6.314;2023-02-18T12:03:51;101456.72;;;10.08;100.00
29935;BME280;19905;53.370;-6.314;2023-02-18T12:06:25;101460.28;;;10.07;100.00
29935;BME280;19905;53.370;-6.314;2023-02-18T12:08:58;101457.66;;;10.07;100.00
29935;BME280;19905;53.370;-6.314;2023-02-18T12:11:33;101464.72;;;10.07;100.00
29935;BME280;19905;53.370;-6.314;2023-02-18T12:14:10;101484.81;;;10.09;100.00
29935;BME280;19905;53.370;-6.314;2023-02-18T12:16:56;101469.84;;;10.24;100.00
29935;BME280;19905;53.370;-6.314;2023-02-18T12:19:52;101483.19;;;10.50;100.00
29935;BME280;19905;53.370;-6.314;2023-02-18T12:22:27;101466.84;;;10.57;100.00
29935;BME280;19905;53.370;-6.314;2023-02-18T12:28:06;101465.50;;;10.64;100.00
29935;BME280;19905;53.370;-6.314;2023-02-18T12:30:59;101455.91;;;10.63;100.00
29935;BME280;19905;53.370;-6.314;2023-02-18T12:33:38;101451.25;;;10.67;100.00
29935;BME280;19905;53.370;-6.314;2023-02-18T12:36:17;101460.41;;;10.61;100.00
29935;BME280;19905;53.370;-6.314;2023-02-18T12:38:58;101437.28;;;10.65;100.00
29935;BME280;19905;53.370;-6.314;2023-02-18T12:41:43;101457.88;;;10.60;100.00
29935;BME280;19905;53.370;-6.314;2023-02-18T12:44:35;101448.94;;;10.48;100.00
29935;BME280;19905;53.370;-6.314;2023-02-18T12:47:28;101447.91;;;10.51;100.00
29935;BME280;19905;53.370;-6.314;2023-02-18T12:53:29;101432.59;;;10.83;100.00
29935;BME280;19905;53.370;-6.314;2023-02-18T12:56:27;101424.94;;;11.05;100.00
29935;BME280;19905;53.370;-6.314;2023-02-18T12:59:04;101397.78;;;11.16;100.00
29935;BME280;19905;53.370;-6.314;2023-02-18T13:01:43;101398.94;;;11.12;100.00
29935;BME280;19905;53.370;-6.314;2023-02-18T13:04:43;101373.44;;;11.11;100.00
29935;BME280;19905;53.370;-6.314;2023-02-18T13:07:56;101375.75;;;11.03;100.00
29935;BME280;19905;53.370;-6.314;2023-02-18T13:10:46;101388.31;;;10.86;100.00
29935;BME280;19905;53.370;-6.314;2023-02-18T13:13:21;101391.91;;;10.85;100.00
29935;BME280;19905;53.370;-6.314;2023-02-18T13:15:54;101392.97;;;10.83;100.00
29935;BME280;19905;53.370;-6.314;2023-02-18T13:18:29;101407.75;;;10.85;100.00